New Century — V7GF8 — position and weather

sailwx.info

Track history (hours):
 
Tides and Currents Weather Stations Pressure Air Temp Water Temp Dewpoint Dewpoint Depression Visibility Wind Speed Wind Dir Waves Ship Positions

New Century

Last reported at 2014-Dec-19 01:33 UTC. Time now 2014-Dec-22 10:37 UTC.
Position N 39°04' W 009°56'.

Length 228 m; draft 12.7 m.

Type: Tanker. MMSI: 538002085.

Date/timePositionNaut miles runAvg speedWind from/ knotsBaromVisibWave heightAir tempDewpointWater temp
2014-Dec-19 01:33N 39°04' W 009°56'1110.9
2014-Dec-19 00:33N 38°53' W 009°56'1111.1
2014-Dec-18 23:33N 38°42' W 009°56'1110.9
2014-Dec-18 22:31N 38°31' W 009°53'1310.7
2014-Dec-18 21:20N 38°18' W 009°49'1310.8
2014-Dec-18 20:07N 38°05' W 009°46'710.9
2014-Dec-18 19:29N 37°59' W 009°44'1110.9
2014-Dec-18 18:29N 37°48' W 009°41'1311.0
2014-Dec-18 17:17N 37°35' W 009°37'811.0
2014-Dec-18 16:31N 37°27' W 009°35'1111.1
2014-Dec-18 15:33N 37°16' W 009°32'1211.2
2014-Dec-18 14:28N 37°05' W 009°28'1511.3
2014-Dec-18 13:06N 36°50' W 009°22'1011.4
2014-Dec-18 12:10N 36°42' W 009°13'811.6
2014-Dec-18 11:27N 36°39' W 009°04'17511.7
2014-Dec-17 20:30N 35°59' W 005°32'8 8.3
2014-Dec-17 19:33N 36°03' W 005°23'4 4.0
2014-Dec-17 18:29N 36°07' W 005°22'0 0.2
2014-Dec-17 17:23N 36°07' W 005°22'0 0.1
2014-Dec-17 16:11N 36°07' W 005°22'0 0.1
2014-Dec-17 15:32N 36°07' W 005°22'0 0.0
2014-Dec-17 14:29N 36°07' W 005°22'0 0.0
2014-Dec-17 13:29N 36°07' W 005°22'0 0.0
2014-Dec-17 12:26N 36°07' W 005°22'0 0.0
2014-Dec-17 11:28N 36°07' W 005°22'0 0.1
2014-Dec-17 10:33N 36°07' W 005°22'7 7.5
2014-Dec-17 09:33N 36°04' W 005°13'  
Track history (hours):
 
Tides and Currents Weather Stations Pressure Air Temp Water Temp Dewpoint Dewpoint Depression Visibility Wind Speed Wind Dir Waves Ship Positions

New Century

Last reported at 2014-Dec-19 01:33 UTC. Time now 2014-Dec-22 10:37 UTC.
Position N 39°04' W 009°56'.

Length 228 m; draft 12.7 m.

Type: Tanker. MMSI: 538002085.

Date/timePositionNaut miles runAvg speedWind from/ knotsBaromVisibWave heightAir tempDewpointWater temp
2014-Dec-19 01:33N 39°04' W 009°56'1110.9
2014-Dec-19 00:33N 38°53' W 009°56'1111.1
2014-Dec-18 23:33N 38°42' W 009°56'1110.9
2014-Dec-18 22:31N 38°31' W 009°53'1310.7
2014-Dec-18 21:20N 38°18' W 009°49'1310.8
2014-Dec-18 20:07N 38°05' W 009°46'710.9
2014-Dec-18 19:29N 37°59' W 009°44'1110.9
2014-Dec-18 18:29N 37°48' W 009°41'1311.0
2014-Dec-18 17:17N 37°35' W 009°37'811.0
2014-Dec-18 16:31N 37°27' W 009°35'1111.1
2014-Dec-18 15:33N 37°16' W 009°32'1211.2
2014-Dec-18 14:28N 37°05' W 009°28'1511.3
2014-Dec-18 13:06N 36°50' W 009°22'1011.4
2014-Dec-18 12:10N 36°42' W 009°13'811.6
2014-Dec-18 11:27N 36°39' W 009°04'17511.7
2014-Dec-17 20:30N 35°59' W 005°32'8 8.3
2014-Dec-17 19:33N 36°03' W 005°23'4 4.0
2014-Dec-17 18:29N 36°07' W 005°22'0 0.2
2014-Dec-17 17:23N 36°07' W 005°22'0 0.1
2014-Dec-17 16:11N 36°07' W 005°22'0 0.1
2014-Dec-17 15:32N 36°07' W 005°22'0 0.0
2014-Dec-17 14:29N 36°07' W 005°22'0 0.0
2014-Dec-17 13:29N 36°07' W 005°22'0 0.0
2014-Dec-17 12:26N 36°07' W 005°22'0 0.0
2014-Dec-17 11:28N 36°07' W 005°22'0 0.1
2014-Dec-17 10:33N 36°07' W 005°22'7 7.5
2014-Dec-17 09:33N 36°04' W 005°13'  

Dump ship's entire track history